Dover, MN (55929)

1:11 AM CDT on July 27, 2016 (GMT -0500)
Kieffer Hills Drive | | Change Station

Elev 1263 ft 43.96 °N, 92.07 °W | Updated 1 minute ago

Clear
Clear
72.0 °F
Feels Like 72.0 °F
N
1.6
Wind Variable Wind from South
Gusts 6.9 mph

Today
High -- | Low -- °F
--% Chance of Precip.
Yesterday
High -- | Low -- °F
Precip. -- in
Pressure 30.02 in
Visibility 10.0 miles
Clouds Clear
Dew Point 68 °F
Humidity 88%
Rainfall 0.00 in
Snow Depth Not available.
5:52 AM 8:37 PM
Waning Gibbous, 47% visible
METAR K9MN 270555Z AUTO 00000KT 10SM CLR 24/19 A3002 RMK AO1 T02350188 10294 20233 403080190
Pressure 30.02 in
Visibility 10.0 miles
Clouds Clear
Dew Point 68 °F
Humidity 88%
Rainfall 0.00 in
Snow Depth Not available.
5:52 AM 8:37 PM
Waning Gibbous, 47% visible
METAR K9MN 270555Z AUTO 00000KT 10SM CLR 24/19 A3002 RMK AO1 T02350188 10294 20233 403080190

10-Day Weather Forecast

Almanac

Astronomy

Jul. 27, 2016 Rise Set
Actual Time
Civil Twilight
Nautical Twilight
Astronomical Twilight
Moon
Length of Visible Light
Length of Day
Tomorrow will be .
, % of the Moon is Illuminated

Today's Extremes

State Highs State Lows

Community

WunderPhotos

Upload Photos

1,927,818 photos uploaded!

WunderBlog® & News

Nearby

Air Quality

  Air Quality AQ Index Pollutant
Not available.

Snow Depth

Station Depth Elevation

Earthquake Activity

City Distance Mag. Time & Date
Minimum magnitude displayed is 2.5.

Coastal Water Temperatures

Place Temperature

Stations

Nearby Weather Stations

Station Location Temp. Windchill Dew Point Humidity Wind Precip. Elev Updated Type
                   

Watches & Warnings

There are currently no watches in effect.